Terminal Aerodrome Forecast
Issued by NWS

Home | Current Version | Previous Version | Graphics & Text | Print | Product List | Glossary On
Versions: 1 2 3 4 5 6 7 8 9 10 11 12 13 14 15 16 17 18
000
FTUS43 KGRB 201700
TAFCWA
TAF
KCWA 201725Z 2018/2118 34012G16KT P6SM BKN028 OVC045
     FM210000 35008KT P6SM BKN030
     FM210800 36005KT P6SM SCT035
     FM211300 03006KT P6SM SCT040=

USA.gov is the U.S. government's official web portal to all federal, state and local government web resources and services.